Time;durP1;ratioP1;P1;durP2;ratioP2;P2;SDS_P1;SDS_P2;PMS_P1;PMS_P2;Temp;Humidity;BMP_temperature;BMP_pressure;BME280_temperature;BME280_humidity;BME280_pressure;Samples;Min_cycle;Max_cycle;Signal;HPM_P1;HPM_P2
2023/12/22 00:00:00;;;;;;;18.23;2.88;;;;;;;3.16;100.00;98661.94;6025688;28;20018;-72
2023/12/22 00:02:55;;;;;;;13.23;2.90;;;;;;;3.16;100.00;98649.69;6028672;28;20026;-72
2023/12/22 00:05:51;;;;;;;14.55;2.17;;;;;;;3.25;100.00;98661.06;6028741;28;20309;-72
2023/12/22 00:08:46;;;;;;;11.13;2.30;;;;;;;3.23;100.00;98663.84;6028942;28;20146;-72
2023/12/22 00:11:41;;;;;;;17.23;1.97;;;;;;;3.29;100.00;98673.69;6028833;28;20027;-72
2023/12/22 00:14:40;;;;;;;8.37;2.70;;;;;;;3.27;100.00;98657.31;6026436;28;20034;-72
2023/12/22 00:17:36;;;;;;;13.85;2.42;;;;;;;3.33;100.00;98672.44;6028620;28;20026;-71
2023/12/22 00:20:31;;;;;;;9.32;2.25;;;;;;;3.40;100.00;98680.47;6028640;28;20034;-72
2023/12/22 00:23:26;;;;;;;12.73;2.10;;;;;;;3.41;100.00;98682.16;6027181;28;20173;-72
2023/12/22 00:26:22;;;;;;;12.53;1.93;;;;;;;3.53;100.00;98686.97;6027249;28;20285;-71
2023/12/22 00:29:17;;;;;;;11.90;2.07;;;;;;;3.58;100.00;98700.47;6029180;28;20032;-72
2023/12/22 00:32:12;;;;;;;16.15;2.47;;;;;;;3.56;100.00;98696.38;6028650;28;20474;-72
2023/12/22 00:35:08;;;;;;;24.40;2.10;;;;;;;3.61;100.00;98694.91;6025678;28;20030;-71
2023/12/22 00:38:03;;;;;;;11.57;1.60;;;;;;;3.68;100.00;98699.56;6025024;28;20042;-71
2023/12/22 00:40:59;;;;;;;12.37;1.87;;;;;;;3.72;100.00;98696.50;6026041;28;20479;-71
2023/12/22 00:43:54;;;;;;;9.50;2.28;;;;;;;3.73;100.00;98685.00;6027707;28;20049;-71
2023/12/22 00:46:49;;;;;;;21.93;2.40;;;;;;;3.85;100.00;98703.94;6026276;28;20033;-70
2023/12/22 00:49:46;;;;;;;10.83;2.13;;;;;;;3.81;100.00;98699.97;6027998;28;20045;-71
2023/12/22 00:52:41;;;;;;;9.52;1.73;;;;;;;3.84;100.00;98710.16;6024533;28;20168;-71
2023/12/22 00:55:36;;;;;;;9.63;2.38;;;;;;;3.88;100.00;98707.09;6026312;28;20042;-71
2023/12/22 00:58:32;;;;;;;7.85;1.65;;;;;;;3.87;100.00;98707.22;6025395;28;20142;-71
2023/12/22 01:01:27;;;;;;;14.93;2.20;;;;;;;3.90;100.00;98704.31;6028187;28;20036;-71
2023/12/22 01:04:22;;;;;;;18.70;2.37;;;;;;;3.94;100.00;98708.28;6027718;28;20038;-71
2023/12/22 01:07:18;;;;;;;9.93;1.50;;;;;;;3.87;100.00;98709.84;6026859;28;20034;-72
2023/12/22 01:10:13;;;;;;;11.02;2.03;;;;;;;3.82;100.00;98728.66;6026539;28;20455;-72
2023/12/22 01:13:09;;;;;;;21.30;2.37;;;;;;;3.88;100.00;98711.50;6025514;28;20034;-72
2023/12/22 01:16:04;;;;;;;8.73;1.63;;;;;;;3.86;100.00;98729.19;6026914;28;20078;-72
2023/12/22 01:19:00;;;;;;;18.27;2.40;;;;;;;3.91;100.00;98714.66;6027273;28;20465;-72
2023/12/22 01:21:55;;;;;;;7.90;1.65;;;;;;;3.86;100.00;98711.66;6026832;28;20031;-72
2023/12/22 01:24:51;;;;;;;13.85;2.67;;;;;;;3.96;100.00;98722.88;6026182;28;20034;-72
2023/12/22 01:27:48;;;;;;;15.13;1.93;;;;;;;3.99;100.00;98730.44;6027322;28;20074;-72
2023/12/22 01:30:43;;;;;;;10.75;1.67;;;;;;;3.98;100.00;98728.78;6039968;28;20324;-72
2023/12/22 01:33:38;;;;;;;12.70;2.10;;;;;;;3.92;100.00;98739.06;6039639;28;20037;-73
2023/12/22 01:36:34;;;;;;;8.70;1.73;;;;;;;3.95;100.00;98744.00;6037074;28;20022;-72
2023/12/22 01:39:29;;;;;;;8.88;1.67;;;;;;;3.93;100.00;98772.16;6040680;28;20061;-72
2023/12/22 01:42:25;;;;;;;19.88;1.92;;;;;;;3.93;100.00;98738.91;6042257;28;20030;-72
2023/12/22 01:45:20;;;;;;;11.13;1.57;;;;;;;3.88;100.00;98749.03;6037680;28;20439;-72
2023/12/22 01:48:16;;;;;;;10.57;2.07;;;;;;;3.74;100.00;98739.09;6045538;28;20045;-72
2023/12/22 01:51:11;;;;;;;7.68;1.45;;;;;;;3.67;100.00;98745.09;6044969;28;20030;-73
2023/12/22 01:54:07;;;;;;;11.25;1.80;;;;;;;3.66;100.00;98753.91;6042189;28;20030;-72
2023/12/22 01:57:02;;;;;;;6.70;1.30;;;;;;;3.59;100.00;98725.69;6042428;28;20552;-72
2023/12/22 01:59:58;;;;;;;7.05;1.50;;;;;;;3.69;100.00;98754.44;6045350;28;20268;-72
2023/12/22 02:02:53;;;;;;;6.47;0.90;;;;;;;3.71;100.00;98762.97;6042465;28;20026;-72
2023/12/22 02:05:48;;;;;;;4.37;1.20;;;;;;;3.72;100.00;98750.69;6040940;28;20057;-72
2023/12/22 02:08:46;;;;;;;16.75;1.55;;;;;;;3.67;100.00;98766.84;6044785;28;20074;-72
2023/12/22 02:11:41;;;;;;;13.68;1.48;;;;;;;3.65;100.00;98753.09;6042825;28;20104;-72
2023/12/22 02:14:37;;;;;;;7.35;1.35;;;;;;;3.52;100.00;98753.47;6039529;28;20464;-72
2023/12/22 02:17:45;;;;;;;7.63;1.63;;;;;;;3.65;100.00;98753.09;6046296;28;20040;-72
2023/12/22 02:20:40;;;;;;;10.00;1.75;;;;;;;3.65;100.00;98768.81;6042728;28;20036;-72
2023/12/22 02:23:36;;;;;;;6.20;1.55;;;;;;;3.46;100.00;98764.56;6041876;28;20401;-72
2023/12/22 02:26:38;;;;;;;13.73;1.40;;;;;;;3.32;100.00;98756.38;6043818;28;20504;-72
2023/12/22 02:29:38;;;;;;;8.07;1.80;;;;;;;3.12;100.00;98753.06;6045956;28;20096;-73
2023/12/22 02:32:40;;;;;;;5.40;1.55;;;;;;;3.01;100.00;98737.56;6041722;28;20018;-72
2023/12/22 02:35:37;;;;;;;18.90;1.98;;;;;;;3.03;100.00;98738.25;6038407;28;20038;-72
2023/12/22 02:38:33;;;;;;;13.38;1.30;;;;;;;2.97;100.00;98739.66;6041791;28;20054;-73
2023/12/22 02:41:29;;;;;;;9.55;1.80;;;;;;;2.97;100.00;98731.81;6044486;28;20029;-73
2023/12/22 02:44:24;;;;;;;7.68;1.27;;;;;;;3.04;100.00;98732.06;6041701;28;20041;-72
2023/12/22 02:47:20;;;;;;;8.63;1.60;;;;;;;3.17;100.00;98719.41;6040913;28;20465;-71
2023/12/22 02:50:16;;;;;;;6.97;1.65;;;;;;;3.21;100.00;98744.31;6043850;28;20469;-72
2023/12/22 02:53:11;;;;;;;14.25;2.38;;;;;;;3.20;100.00;98718.28;6042528;28;20121;-72
2023/12/22 02:56:07;;;;;;;9.10;1.33;;;;;;;3.17;100.00;98722.03;6043384;28;20409;-73
2023/12/22 02:59:02;;;;;;;11.47;1.67;;;;;;;3.31;100.00;98723.31;6042901;28;20461;-71
2023/12/22 03:01:57;;;;;;;4.32;0.98;;;;;;;3.36;100.00;98731.53;6046014;28;20272;-71
2023/12/22 03:04:53;;;;;;;8.33;1.37;;;;;;;3.33;100.00;98732.66;6038935;28;20034;-72
2023/12/22 03:07:48;;;;;;;4.30;1.30;;;;;;;3.17;100.00;98715.97;6045724;28;20477;-71
2023/12/22 03:10:43;;;;;;;4.73;0.80;;;;;;;2.80;100.00;98703.00;6042797;28;20389;-72
2023/12/22 03:13:39;;;;;;;1.60;0.60;;;;;;;2.73;100.00;98712.38;6043082;28;20113;-72
2023/12/22 03:16:34;;;;;;;3.17;0.63;;;;;;;2.54;100.00;98702.84;6042185;28;20029;-72
2023/12/22 03:19:30;;;;;;;5.93;0.83;;;;;;;2.49;100.00;98730.41;6042872;28;20030;-72
2023/12/22 03:22:25;;;;;;;3.88;0.80;;;;;;;2.33;100.00;98720.56;6042876;28;20038;-72
2023/12/22 03:25:21;;;;;;;8.37;1.30;;;;;;;2.34;100.00;98728.25;6042678;28;20109;-72
2023/12/22 03:28:16;;;;;;;7.07;1.15;;;;;;;2.35;100.00;98722.06;6041033;28;20354;-71
2023/12/22 03:31:11;;;;;;;6.37;1.37;;;;;;;2.37;100.00;98733.19;6041878;28;20040;-71
2023/12/22 03:34:07;;;;;;;4.53;1.63;;;;;;;2.52;100.00;98751.03;6040256;28;20049;-72
2023/12/22 03:37:02;;;;;;;9.77;1.35;;;;;;;2.71;100.00;98753.56;6042882;28;20070;-71
2023/12/22 03:39:58;;;;;;;9.18;0.98;;;;;;;2.62;100.00;98738.72;6038626;28;20026;-70
2023/12/22 03:42:53;;;;;;;4.83;1.43;;;;;;;2.62;100.00;98762.28;6040830;28;20033;-71
2023/12/22 03:45:48;;;;;;;11.80;1.90;;;;;;;2.55;100.00;98740.28;6034462;28;20104;-71
2023/12/22 03:48:44;;;;;;;5.13;1.80;;;;;;;2.51;100.00;98744.16;6039078;28;20065;-71
2023/12/22 03:51:41;;;;;;;6.35;0.82;;;;;;;2.52;100.00;98732.72;6036414;28;20034;-71
2023/12/22 03:54:38;;;;;;;7.75;1.25;;;;;;;2.46;100.00;98735.91;6041696;28;20034;-70
2023/12/22 03:57:33;;;;;;;9.27;0.90;;;;;;;2.42;100.00;98735.38;6037962;28;20022;-70
2023/12/22 04:00:29;;;;;;;12.87;1.63;;;;;;;2.44;100.00;98722.16;6036637;28;20041;-70
2023/12/22 04:03:24;;;;;;;11.30;1.40;;;;;;;2.42;100.00;98708.41;6043392;28;20453;-73
2023/12/22 04:06:19;;;;;;;18.27;1.83;;;;;;;2.46;100.00;98715.00;6034804;28;20500;-72
2023/12/22 04:09:15;;;;;;;9.23;3.10;;;;;;;2.51;100.00;98718.81;6035925;28;20037;-72
2023/12/22 04:12:10;;;;;;;12.80;1.67;;;;;;;2.66;100.00;98711.31;6036988;28;20029;-72
2023/12/22 04:15:06;;;;;;;13.10;1.63;;;;;;;2.77;100.00;98703.28;6034668;28;20030;-72
2023/12/22 04:18:01;;;;;;;9.77;1.25;;;;;;;2.79;100.00;98698.72;6039196;28;20768;-72
2023/12/22 04:20:57;;;;;;;8.53;2.00;;;;;;;2.78;100.00;98697.06;6039619;28;20077;-72
2023/12/22 04:23:52;;;;;;;10.73;2.40;;;;;;;2.76;100.00;98707.69;6033026;28;20033;-73
2023/12/22 04:26:47;;;;;;;6.13;1.50;;;;;;;2.82;100.00;98711.50;6035549;28;20179;-71
2023/12/22 04:29:43;;;;;;;8.70;2.20;;;;;;;2.88;100.00;98703.09;6041796;28;20030;-71
2023/12/22 04:32:39;;;;;;;11.52;1.70;;;;;;;2.93;100.00;98708.69;6037394;28;20386;-72
2023/12/22 04:35:34;;;;;;;3.17;1.00;;;;;;;2.94;100.00;98700.69;6040457;28;20088;-72
2023/12/22 04:38:29;;;;;;;6.35;2.10;;;;;;;2.97;100.00;98713.47;6034869;28;20034;-72
2023/12/22 04:41:25;;;;;;;10.37;1.60;;;;;;;3.01;100.00;98737.56;6043467;28;20041;-72
2023/12/22 04:44:20;;;;;;;9.63;1.63;;;;;;;3.04;100.00;98725.97;6037372;28;20033;-71
2023/12/22 04:47:15;;;;;;;8.27;1.63;;;;;;;2.99;100.00;98747.34;6036850;28;20479;-72
2023/12/22 04:50:11;;;;;;;7.30;1.30;;;;;;;2.88;100.00;98744.97;6036135;28;20030;-72
2023/12/22 04:53:06;;;;;;;15.47;1.60;;;;;;;2.87;100.00;98756.38;6039468;28;20636;-72
2023/12/22 04:56:01;;;;;;;9.60;1.77;;;;;;;2.72;100.00;98748.19;6040685;28;20549;-73
2023/12/22 04:58:57;;;;;;;7.00;1.37;;;;;;;2.64;100.00;98735.00;6037256;28;20041;-72
2023/12/22 05:01:52;;;;;;;20.03;2.17;;;;;;;2.56;100.00;98757.63;6039310;28;20956;-73
2023/12/22 05:04:47;;;;;;;8.30;1.17;;;;;;;2.52;100.00;98762.34;6034726;28;20289;-72
2023/12/22 05:07:42;;;;;;;5.00;1.27;;;;;;;2.49;100.00;98753.94;6029326;28;20282;-72
2023/12/22 05:10:38;;;;;;;8.77;1.03;;;;;;;2.37;100.00;98748.88;6036140;28;20026;-73
2023/12/22 05:13:33;;;;;;;12.57;1.50;;;;;;;2.52;100.00;98766.72;6035000;28;20026;-72
2023/12/22 05:16:30;;;;;;;14.52;1.60;;;;;;;2.62;100.00;98757.88;6042063;28;20049;-71
2023/12/22 05:19:26;;;;;;;3.97;1.15;;;;;;;2.59;100.00;98736.41;6039073;28;20030;-72
2023/12/22 05:22:21;;;;;;;8.10;1.00;;;;;;;2.57;100.00;98728.72;6037904;28;20513;-72
2023/12/22 05:25:16;;;;;;;9.03;1.20;;;;;;;2.68;100.00;98738.16;6035715;28;20172;-72
2023/12/22 05:28:12;;;;;;;6.63;1.50;;;;;;;2.60;100.00;98724.97;6042381;28;20049;-72
2023/12/22 05:31:09;;;;;;;7.10;1.30;;;;;;;2.60;100.00;98728.44;6035956;28;20035;-72
2023/12/22 05:34:04;;;;;;;2.58;0.80;;;;;;;2.69;100.00;98747.66;6035775;28;20050;-72
2023/12/22 05:36:59;;;;;;;12.73;1.60;;;;;;;2.67;100.00;98724.25;6037859;28;20048;-72
2023/12/22 05:39:55;;;;;;;4.13;1.27;;;;;;;2.80;100.00;98729.16;6039580;28;20041;-73
2023/12/22 05:42:52;;;;;;;7.63;1.10;;;;;;;2.84;100.00;98756.66;6027762;28;20046;-72
2023/12/22 05:45:47;;;;;;;9.30;2.22;;;;;;;2.89;100.00;98754.44;6049159;28;20122;-73
2023/12/22 05:48:42;;;;;;;9.37;1.60;;;;;;;2.87;100.00;98759.00;6044630;28;20037;-73
2023/12/22 05:51:38;;;;;;;6.53;1.30;;;;;;;2.89;100.00;98775.38;6027858;28;20050;-73
2023/12/22 05:54:34;;;;;;;8.30;1.83;;;;;;;2.91;100.00;98757.72;6043910;28;20023;-73
2023/12/22 05:57:29;;;;;;;8.47;1.10;;;;;;;2.92;100.00;98759.38;6048315;28;20646;-73
2023/12/22 06:00:26;;;;;;;11.80;2.30;;;;;;;2.91;100.00;98752.50;6037294;28;20105;-73
2023/12/22 06:03:21;;;;;;;12.30;1.70;;;;;;;2.98;100.00;98769.28;6036131;28;20037;-73
2023/12/22 06:06:16;;;;;;;5.47;1.07;;;;;;;2.99;100.00;98747.34;6040101;28;20028;-73
2023/12/22 06:09:12;;;;;;;6.30;1.57;;;;;;;2.87;100.00;98738.91;6037830;28;20030;-73
2023/12/22 06:12:08;;;;;;;7.55;1.35;;;;;;;2.95;100.00;98764.34;6047730;28;20038;-73
2023/12/22 06:15:03;;;;;;;11.93;1.57;;;;;;;2.97;100.00;98765.00;6043031;28;20507;-72
2023/12/22 06:17:59;;;;;;;7.15;1.50;;;;;;;3.27;100.00;98787.41;6037683;28;20258;-73
2023/12/22 06:20:54;;;;;;;3.83;1.47;;;;;;;3.37;100.00;98802.09;6033326;28;20371;-72
2023/12/22 06:23:49;;;;;;;8.15;2.33;;;;;;;3.43;100.00;98770.09;6031407;28;20031;-72
2023/12/22 06:26:45;;;;;;;8.07;1.80;;;;;;;3.48;100.00;98783.56;6038608;28;20034;-72
2023/12/22 06:29:41;;;;;;;7.00;1.27;;;;;;;3.48;100.00;98791.41;6043307;28;20026;-72
2023/12/22 06:32:39;;;;;;;6.78;1.55;;;;;;;3.43;100.00;98817.25;6036578;28;20030;-72
2023/12/22 06:35:35;;;;;;;12.02;1.35;;;;;;;3.42;100.00;98822.63;6030675;28;20041;-73
2023/12/22 06:38:31;;;;;;;2.83;0.82;;;;;;;3.31;100.00;98823.66;6036933;28;20386;-73
2023/12/22 06:41:29;;;;;;;6.80;1.10;;;;;;;2.99;100.00;98847.66;6031821;28;20060;-73
2023/12/22 06:44:25;;;;;;;5.30;1.10;;;;;;;2.82;100.00;98834.50;6038770;28;20029;-73
2023/12/22 06:47:20;;;;;;;6.60;1.13;;;;;;;2.77;100.00;98831.50;6027747;28;20456;-73
2023/12/22 06:50:16;;;;;;;2.13;0.60;;;;;;;2.68;100.00;98834.97;6033829;28;20057;-74
2023/12/22 06:53:11;;;;;;;4.43;1.10;;;;;;;2.67;100.00;98838.53;6032271;28;20041;-73
2023/12/22 06:56:20;;;;;;;5.00;0.83;;;;;;;2.71;100.00;98855.63;6026288;28;20038;-72
2023/12/22 06:59:16;;;;;;;2.33;0.65;;;;;;;2.67;100.00;98849.00;6045211;28;20385;-72
2023/12/22 07:02:11;;;;;;;4.13;1.00;;;;;;;2.72;100.00;98841.53;6032508;28;20034;-71
2023/12/22 07:05:09;;;;;;;2.57;0.50;;;;;;;2.93;100.00;98855.28;6022577;28;20034;-71
2023/12/22 07:08:05;;;;;;;2.20;1.13;;;;;;;2.92;100.00;98854.44;6023733;28;20030;-72
2023/12/22 07:11:00;;;;;;;8.35;1.35;;;;;;;3.00;100.00;98861.56;6026368;28;20069;-72
2023/12/22 07:13:56;;;;;;;8.47;1.33;;;;;;;3.08;100.00;98869.53;6021937;28;20058;-72
2023/12/22 07:16:51;;;;;;;4.70;0.90;;;;;;;3.22;100.00;98876.91;6027993;28;20038;-72
2023/12/22 07:19:47;;;;;;;3.03;0.83;;;;;;;3.36;100.00;98904.41;6026682;28;20309;-72
2023/12/22 07:22:45;;;;;;;3.17;1.23;;;;;;;3.41;100.00;98883.84;6022587;28;20031;-72
2023/12/22 07:25:40;;;;;;;7.43;1.05;;;;;;;3.38;100.00;98903.31;6023763;28;20031;-72
2023/12/22 07:28:35;;;;;;;3.13;0.63;;;;;;;3.26;100.00;98893.97;6028274;28;20493;-72
2023/12/22 07:31:31;;;;;;;3.85;0.70;;;;;;;3.21;100.00;98925.00;6027547;28;20030;-72
2023/12/22 07:34:26;;;;;;;6.80;1.37;;;;;;;3.13;100.00;98922.28;6025640;28;20022;-72
2023/12/22 07:37:21;;;;;;;3.70;0.63;;;;;;;3.15;100.00;98951.78;6032483;28;20522;-72
2023/12/22 07:40:17;;;;;;;5.37;1.00;;;;;;;3.07;100.00;98975.25;6030792;28;20042;-72
2023/12/22 07:43:13;;;;;;;12.47;2.60;;;;;;;2.90;100.00;98970.72;6028698;28;20034;-71
2023/12/22 07:46:09;;;;;;;10.45;1.05;;;;;;;2.68;100.00;98997.19;6026242;28;20077;-73
2023/12/22 07:49:04;;;;;;;3.22;0.85;;;;;;;2.55;100.00;98970.47;6028710;28;20030;-72
2023/12/22 07:51:59;;;;;;;4.00;0.90;;;;;;;2.46;100.00;98945.16;6028080;28;20205;-72
2023/12/22 07:54:55;;;;;;;5.30;0.90;;;;;;;2.37;100.00;98960.72;6023606;28;20038;-71
2023/12/22 07:57:50;;;;;;;4.53;0.50;;;;;;;2.30;100.00;98941.31;6031574;28;20033;-72
2023/12/22 08:00:46;;;;;;;6.63;0.75;;;;;;;2.29;100.00;98955.34;6027913;28;20120;-71
2023/12/22 08:03:41;;;;;;;5.22;1.20;;;;;;;2.33;100.00;98951.50;6025880;28;20042;-71
2023/12/22 08:06:36;;;;;;;2.22;0.65;;;;;;;2.40;100.00;98983.97;6029485;28;20034;-72
2023/12/22 08:09:32;;;;;;;6.10;1.03;;;;;;;2.31;100.00;98999.66;6031988;28;20120;-73
2023/12/22 08:12:28;;;;;;;10.35;1.40;;;;;;;2.11;100.00;98993.59;6029754;28;20100;-71
2023/12/22 08:15:23;;;;;;;5.20;0.73;;;;;;;1.90;100.00;98994.63;6032443;28;20034;-71
2023/12/22 08:18:18;;;;;;;2.10;0.40;;;;;;;1.87;100.00;99005.34;6030086;28;20037;-71
2023/12/22 08:21:15;;;;;;;3.97;1.20;;;;;;;1.80;100.00;99015.50;6027321;28;20038;-71
2023/12/22 08:24:11;;;;;;;5.18;1.00;;;;;;;1.75;100.00;98999.41;6022334;28;20034;-73
2023/12/22 08:27:06;;;;;;;5.55;1.00;;;;;;;1.81;100.00;99001.47;6028250;28;20122;-71
2023/12/22 08:30:03;;;;;;;5.03;0.85;;;;;;;1.92;100.00;99004.00;6028788;28;20030;-72
2023/12/22 08:32:58;;;;;;;8.30;1.08;;;;;;;1.92;100.00;99000.56;6024187;28;20033;-71
2023/12/22 08:35:54;;;;;;;10.70;1.13;;;;;;;1.77;100.00;98984.41;6034135;28;20034;-72
2023/12/22 08:38:49;;;;;;;6.07;1.00;;;;;;;1.76;100.00;98986.22;6030234;28;20031;-71
2023/12/22 08:41:45;;;;;;;10.50;1.55;;;;;;;1.85;100.00;98963.66;6026550;28;20282;-72
2023/12/22 08:44:40;;;;;;;19.83;4.35;;;;;;;2.18;100.00;99006.91;6026134;28;20041;-71
2023/12/22 08:47:36;;;;;;;12.65;2.08;;;;;;;2.42;100.00;99034.34;6026043;28;20034;-71
2023/12/22 08:50:31;;;;;;;14.97;2.50;;;;;;;2.26;100.00;99026.22;6034454;28;20539;-71
2023/12/22 08:53:29;;;;;;;6.83;1.23;;;;;;;2.42;100.00;99034.34;6037726;28;20428;-70
2023/12/22 08:56:26;;;;;;;21.27;2.67;;;;;;;2.64;100.00;99017.56;6027600;28;20033;-72
2023/12/22 08:59:21;;;;;;;16.33;3.30;;;;;;;3.10;100.00;99008.97;6039352;28;20469;-71
2023/12/22 09:02:16;;;;;;;15.13;1.73;;;;;;;3.37;100.00;99006.41;6025395;28;20113;-72
2023/12/22 09:05:11;;;;;;;10.37;2.00;;;;;;;3.57;100.00;99002.78;6034442;28;20030;-71
2023/12/22 09:08:07;;;;;;;12.43;2.43;;;;;;;3.75;100.00;98999.41;6027211;28;20042;-72
2023/12/22 09:11:02;;;;;;;16.00;3.27;;;;;;;4.03;100.00;99019.38;6029596;28;20081;-72
2023/12/22 09:13:58;;;;;;;12.18;2.22;;;;;;;4.13;100.00;99022.81;6047342;28;20417;-72
2023/12/22 09:16:55;;;;;;;15.07;2.20;;;;;;;4.38;100.00;99016.00;6031352;28;20041;-72
2023/12/22 09:19:51;;;;;;;15.10;2.38;;;;;;;4.54;100.00;98998.59;6041417;28;20033;-71
2023/12/22 09:22:46;;;;;;;12.53;2.23;;;;;;;4.78;100.00;99021.66;6035359;28;20033;-71
2023/12/22 09:25:42;;;;;;;15.10;2.25;;;;;;;4.92;100.00;99022.91;6033476;28;20034;-72
2023/12/22 09:28:37;;;;;;;11.87;2.27;;;;;;;4.78;100.00;99040.81;6030563;28;20363;-72
2023/12/22 09:31:32;;;;;;;19.03;2.47;;;;;;;4.46;100.00;99042.31;6022648;28;20292;-72
2023/12/22 09:34:28;;;;;;;11.60;1.93;;;;;;;4.20;100.00;99048.28;6026051;28;20061;-72
2023/12/22 09:37:23;;;;;;;14.83;2.23;;;;;;;4.09;100.00;99024.06;6035958;28;20490;-72
2023/12/22 09:40:18;;;;;;;19.38;2.00;;;;;;;4.07;100.00;99031.25;6029115;28;20038;-72
2023/12/22 09:43:15;;;;;;;13.03;2.70;;;;;;;4.11;100.00;99053.56;6030645;28;20037;-71
2023/12/22 09:46:11;;;;;;;16.05;1.92;;;;;;;4.14;100.00;99037.53;6029776;28;20027;-71
2023/12/22 09:49:07;;;;;;;12.73;2.47;;;;;;;4.18;100.00;99038.91;6027170;28;20034;-72
2023/12/22 09:52:04;;;;;;;12.13;2.20;;;;;;;4.34;100.00;99014.66;6033690;28;20396;-72
2023/12/22 09:55:00;;;;;;;12.43;2.30;;;;;;;4.56;100.00;99011.59;6028368;28;20037;-72
2023/12/22 09:57:56;;;;;;;14.68;2.60;;;;;;;4.66;100.00;99018.41;6028418;28;20033;-72
2023/12/22 10:00:52;;;;;;;13.82;2.72;;;;;;;4.74;100.00;99008.00;6033074;28;20041;-72
2023/12/22 10:03:47;;;;;;;22.33;2.42;;;;;;;4.84;100.00;99004.47;6028118;28;20072;-72
2023/12/22 10:06:45;;;;;;;9.65;2.35;;;;;;;4.96;100.00;99008.47;6031989;28;20033;-72
2023/12/22 10:09:41;;;;;;;10.65;1.55;;;;;;;5.15;100.00;99003.03;6034730;28;20033;-72
2023/12/22 10:12:39;;;;;;;7.90;1.55;;;;;;;5.30;100.00;98988.34;6032008;28;20115;-71
2023/12/22 10:15:37;;;;;;;4.55;1.17;;;;;;;5.56;100.00;99010.19;6029703;28;20031;-71
2023/12/22 10:18:33;;;;;;;9.80;1.60;;;;;;;5.53;100.00;99000.00;6032183;28;20030;-72
2023/12/22 10:21:30;;;;;;;8.65;1.58;;;;;;;5.39;100.00;99011.91;6028417;28;20037;-71
2023/12/22 10:24:39;;;;;;;10.00;2.00;;;;;;;5.33;100.00;99011.69;6027585;28;20045;-72
2023/12/22 10:27:37;;;;;;;6.32;1.35;;;;;;;5.21;100.00;99015.56;6028960;28;20029;-72
2023/12/22 10:30:33;;;;;;;5.55;1.45;;;;;;;5.11;100.00;99012.22;6023438;28;20041;-73
2023/12/22 10:33:29;;;;;;;6.43;1.20;;;;;;;4.91;100.00;99014.19;6046717;28;20116;-72
2023/12/22 10:36:25;;;;;;;3.20;0.82;;;;;;;4.82;100.00;99028.22;6032318;28;20396;-73
2023/12/22 10:39:21;;;;;;;8.20;1.10;;;;;;;4.67;100.00;99037.63;6026990;28;20034;-72
2023/12/22 10:42:17;;;;;;;9.82;1.60;;;;;;;4.15;100.00;98997.25;6025993;28;20030;-71
2023/12/22 10:45:13;;;;;;;8.60;1.48;;;;;;;3.71;100.00;99034.72;6028216;28;20034;-70
2023/12/22 10:48:08;;;;;;;8.20;1.77;;;;;;;3.51;100.00;99040.03;6046318;28;20392;-70
2023/12/22 10:51:09;;;;;;;10.83;1.87;;;;;;;3.40;100.00;99042.81;6026781;28;20116;-72
2023/12/22 10:54:05;;;;;;;;;;;;;;;3.35;100.00;99058.13;6029779;28;20281;-70
2023/12/22 10:57:01;;;;;;;9.15;1.23;;;;;;;3.20;100.00;99025.50;6034196;28;20372;-70
2023/12/22 10:59:57;;;;;;;5.23;1.10;;;;;;;3.22;100.00;99056.78;6024589;28;20042;-70
2023/12/22 11:02:57;;;;;;;7.97;1.23;;;;;;;3.14;100.00;99044.41;6024495;28;20042;-71
2023/12/22 11:05:54;;;;;;;6.80;1.58;;;;;;;2.96;100.00;99033.00;6030127;28;20035;-70
2023/12/22 11:08:53;;;;;;;11.30;1.50;;;;;;;2.87;100.00;99033.81;6027059;28;20042;-70
2023/12/22 11:11:49;;;;;;;3.83;1.10;;;;;;;2.86;100.00;99042.63;6031108;28;20053;-71
2023/12/22 11:14:45;;;;;;;7.28;1.42;;;;;;;2.87;100.00;99049.53;6026702;28;20533;-71
2023/12/22 11:17:42;;;;;;;5.35;1.30;;;;;;;2.93;100.00;99038.50;6043159;28;20040;-71
2023/12/22 11:20:38;;;;;;;3.45;0.60;;;;;;;3.01;100.00;99041.25;6032764;28;20489;-72
2023/12/22 11:23:34;;;;;;;5.00;1.00;;;;;;;3.02;100.00;99026.38;6026865;28;20029;-71
2023/12/22 11:26:29;;;;;;;2.20;1.17;;;;;;;3.08;100.00;99039.72;6044197;28;20038;-71
2023/12/22 11:29:26;;;;;;;11.10;1.30;;;;;;;3.13;100.00;99019.16;6034554;28;20030;-72
2023/12/22 11:32:21;;;;;;;5.72;0.80;;;;;;;3.18;100.00;99019.56;6027399;28;20085;-71
2023/12/22 11:35:17;;;;;;;6.77;1.10;;;;;;;3.24;100.00;99021.63;6027680;28;20668;-70
2023/12/22 11:38:13;;;;;;;5.03;1.02;;;;;;;3.29;100.00;99019.41;6034311;28;22025;-71
2023/12/22 11:41:17;;;;;;;8.68;2.13;;;;;;;3.33;100.00;99007.69;6029336;28;20062;-71
2023/12/22 11:44:12;;;;;;;7.18;1.58;;;;;;;3.40;100.00;99000.06;6021543;28;20066;-71
2023/12/22 11:47:09;;;;;;;10.13;1.85;;;;;;;3.34;100.00;98983.13;6028270;28;20038;-72
2023/12/22 11:50:09;;;;;;;7.93;2.22;;;;;;;3.43;100.00;99008.47;6028350;28;20031;-71
2023/12/22 11:53:25;;;;;;;14.60;1.83;;;;;;;3.42;100.00;99009.47;6027787;28;20030;-72
2023/12/22 11:56:20;;;;;;;8.77;2.40;;;;;;;3.47;100.00;99007.25;6033364;28;20117;-73
2023/12/22 11:59:16;;;;;;;9.80;2.17;;;;;;;3.46;100.00;99013.44;6028595;28;20030;-72
2023/12/22 12:02:12;;;;;;;6.43;1.73;;;;;;;3.51;100.00;99016.44;6025813;28;20046;-71
2023/12/22 12:05:08;;;;;;;8.20;1.97;;;;;;;3.42;100.00;98990.28;6025544;28;20354;-72
2023/12/22 12:08:07;;;;;;;32.97;10.43;;;;;;;3.39;100.00;99009.75;6028641;28;20080;-72
2023/12/22 12:11:03;;;;;;;23.58;10.60;;;;;;;3.44;100.00;99028.47;6027014;28;20117;-71
2023/12/22 12:14:11;;;;;;;11.13;2.57;;;;;;;3.35;100.00;99015.41;6027576;28;20473;-71
2023/12/22 12:17:08;;;;;;;10.55;3.58;;;;;;;3.35;100.00;99018.84;6047810;28;20029;-73
2023/12/22 12:20:06;;;;;;;8.50;1.50;;;;;;;3.37;100.00;99006.41;6028937;28;20035;-71
2023/12/22 12:23:02;;;;;;;3.78;2.13;;;;;;;3.47;100.00;99011.66;6026522;28;20481;-72
2023/12/22 12:25:57;;;;;;;12.35;1.90;;;;;;;3.38;100.00;99002.84;6043014;28;20030;-72
2023/12/22 12:28:52;;;;;;;10.93;2.43;;;;;;;3.43;100.00;99008.47;6038282;28;20113;-72
2023/12/22 12:31:48;;;;;;;9.73;1.80;;;;;;;3.51;100.00;99003.34;6029532;28;20035;-73
2023/12/22 12:34:43;;;;;;;7.40;1.40;;;;;;;3.56;100.00;99000.31;6045077;28;20030;-73
2023/12/22 12:37:39;;;;;;;7.40;1.52;;;;;;;3.56;100.00;99000.31;6034804;28;20034;-72
2023/12/22 12:40:37;;;;;;;10.40;2.20;;;;;;;3.64;100.00;99008.28;6033371;28;21182;-73
2023/12/22 12:43:32;;;;;;;8.50;1.50;;;;;;;3.66;100.00;99014.19;6028937;28;20031;-73
2023/12/22 12:46:35;;;;;;;11.57;3.45;;;;;;;3.72;100.00;99010.16;6024644;28;20033;-73
2023/12/22 12:49:30;;;;;;;9.95;1.48;;;;;;;3.67;100.00;98991.44;6024566;28;20085;-73
2023/12/22 12:52:26;;;;;;;56.05;24.08;;;;;;;3.77;100.00;98992.22;6026766;28;20537;-73
2023/12/22 12:55:23;;;;;;;12.50;2.72;;;;;;;3.80;100.00;99008.47;6041825;28;20037;-73
2023/12/22 12:58:19;;;;;;;12.63;3.58;;;;;;;3.83;100.00;99002.13;6026385;28;20122;-72
2023/12/22 13:01:15;;;;;;;5.37;2.10;;;;;;;3.81;100.00;98981.28;6026747;28;20088;-72
2023/12/22 13:04:12;;;;;;;12.52;1.48;;;;;;;3.88;100.00;98978.91;6027618;28;20371;-73
2023/12/22 13:07:10;;;;;;;7.97;1.38;;;;;;;3.95;100.00;98993.06;6030235;28;20113;-72
2023/12/22 13:10:19;;;;;;;9.02;1.50;;;;;;;3.98;100.00;98985.75;6023688;28;20593;-73
2023/12/22 13:13:14;;;;;;;6.50;1.23;;;;;;;3.96;100.00;98992.13;6025578;28;20093;-72
2023/12/22 13:16:10;;;;;;;5.60;1.30;;;;;;;3.95;100.00;98980.78;6025886;28;20041;-72
2023/12/22 13:19:06;;;;;;;7.57;1.90;;;;;;;4.02;100.00;98979.22;6027880;28;20025;-72
2023/12/22 13:22:01;;;;;;;9.77;1.30;;;;;;;4.08;100.00;98980.44;6025682;28;20057;-73
2023/12/22 13:24:57;;;;;;;15.43;2.30;;;;;;;4.21;100.00;98976.47;6030888;28;20050;-73
2023/12/22 13:27:53;;;;;;;8.13;1.27;;;;;;;4.36;100.00;98974.16;6028773;28;20089;-71
2023/12/22 13:30:48;;;;;;;6.23;1.60;;;;;;;4.52;100.00;98969.06;6018983;28;20030;-71
2023/12/22 13:33:44;;;;;;;12.57;1.43;;;;;;;4.64;100.00;98960.00;6025198;28;20038;-71
2023/12/22 13:36:41;;;;;;;8.18;1.50;;;;;;;4.76;100.00;98965.81;6025353;28;20029;-72
2023/12/22 13:39:37;;;;;;;7.55;1.30;;;;;;;4.78;100.00;98975.19;6029968;28;20390;-72
2023/12/22 13:42:32;;;;;;;6.17;1.00;;;;;;;4.91;100.00;98977.44;6022222;28;20134;-72